VOZ1859 YPPH-YPKG
Flight info
| Callsign | VOZ1859 |
|---|---|
| Flight time | 0h 53m |
| Altitude | 31000 |
| Route | PH Y31 LAKIR Y69 BOSLI Y67 KG |
| Aircraft | B738/M-SDE2E3FGHIRWXY/LB1 |
Departure
| Time | 2026-05-04 04:17 |
|---|---|
| Airport | Perth International Airport (YPPH) |
Arrival
| Time | 2026-05-04 05:10 |
|---|---|
| Airport | Kalgoorlie Boulder Airport (YPKG) |
| Time | Latitude | Longitude | Altitude | Speed | Heading |
|---|---|---|---|---|---|
| 2026-05-04 03:43 | -31.94163 | 115.97057 | 51 ft | 0 kts | 16° |
| 2026-05-04 04:05 | -31.94167 | 115.97055 | 59 ft | 4 kts | 14° |
| 2026-05-04 04:05 | -31.94194 | 115.97051 | 55 ft | 4 kts | 354° |
| 2026-05-04 04:06 | -31.94220 | 115.97057 | 60 ft | 4 kts | 343° |
| 2026-05-04 04:06 | -31.94228 | 115.97060 | 60 ft | 0 kts | 343° |
| 2026-05-04 04:09 | -31.94218 | 115.97052 | 60 ft | 2 kts | 316° |
| 2026-05-04 04:10 | -31.94214 | 115.97031 | 53 ft | 4 kts | 276° |
| 2026-05-04 04:10 | -31.94211 | 115.96983 | 56 ft | 9 kts | 275° |
| 2026-05-04 04:10 | -31.94197 | 115.96900 | 53 ft | 11 kts | 284° |
| 2026-05-04 04:10 | -31.94189 | 115.96834 | 57 ft | 7 kts | 255° |
| 2026-05-04 04:11 | -31.94227 | 115.96802 | 59 ft | 7 kts | 197° |
| 2026-05-04 04:11 | -31.94273 | 115.96786 | 54 ft | 7 kts | 196° |
| 2026-05-04 04:11 | -31.94329 | 115.96769 | 59 ft | 11 kts | 193° |
| 2026-05-04 04:11 | -31.94414 | 115.96744 | 56 ft | 13 kts | 194° |
| 2026-05-04 04:12 | -31.94477 | 115.96726 | 55 ft | 9 kts | 194° |
| 2026-05-04 04:12 | -31.94508 | 115.96672 | 53 ft | 9 kts | 275° |
| 2026-05-04 04:12 | -31.94494 | 115.96598 | 55 ft | 9 kts | 284° |
| 2026-05-04 04:12 | -31.94479 | 115.96532 | 56 ft | 3 kts | 283° |
| 2026-05-04 04:13 | -31.94478 | 115.96523 | 53 ft | 0 kts | 283° |
| 2026-05-04 04:14 | -31.94472 | 115.96498 | 51 ft | 12 kts | 285° |
| 2026-05-04 04:14 | -31.94446 | 115.96370 | 56 ft | 17 kts | 284° |
| 2026-05-04 04:14 | -31.94418 | 115.96240 | 54 ft | 16 kts | 284° |
| 2026-05-04 04:14 | -31.94400 | 115.96163 | 51 ft | 8 kts | 296° |
| 2026-05-04 04:15 | -31.94358 | 115.96119 | 56 ft | 8 kts | 329° |
| 2026-05-04 04:15 | -31.94308 | 115.96084 | 54 ft | 9 kts | 328° |
| 2026-05-04 04:15 | -31.94257 | 115.96048 | 50 ft | 8 kts | 329° |
| 2026-05-04 04:15 | -31.94206 | 115.96013 | 50 ft | 9 kts | 330° |
| 2026-05-04 04:16 | -31.94154 | 115.95977 | 51 ft | 9 kts | 327° |
| 2026-05-04 04:16 | -31.94103 | 115.95944 | 49 ft | 8 kts | 350° |
| 2026-05-04 04:16 | -31.94056 | 115.96003 | 52 ft | 24 kts | 59° |
| 2026-05-04 04:16 | -31.93840 | 115.96424 | 56 ft | 94 kts | 58° |
| 2026-05-04 04:17 | -31.93400 | 115.97277 | 71 ft | 149 kts | 59° |
| 2026-05-04 04:17 | -31.92844 | 115.98362 | 617 ft | 162 kts | 58° |
| 2026-05-04 04:17 | -31.92249 | 115.99531 | 1334 ft | 167 kts | 61° |
| 2026-05-04 04:17 | -31.91662 | 116.00686 | 2160 ft | 164 kts | 61° |
| 2026-05-04 04:18 | -31.91030 | 116.01926 | 2615 ft | 187 kts | 61° |
| 2026-05-04 04:18 | -31.90332 | 116.03307 | 2949 ft | 207 kts | 59° |
| 2026-05-04 04:18 | -31.89546 | 116.04826 | 3247 ft | 223 kts | 59° |
| 2026-05-04 04:18 | -31.88739 | 116.06411 | 3839 ft | 229 kts | 60° |
| 2026-05-04 04:19 | -31.87912 | 116.08058 | 4377 ft | 242 kts | 60° |
| 2026-05-04 04:19 | -31.87005 | 116.09831 | 4821 ft | 259 kts | 60° |
| 2026-05-04 04:19 | -31.86074 | 116.11640 | 5530 ft | 267 kts | 60° |
| 2026-05-04 04:19 | -31.85312 | 116.13635 | 6346 ft | 267 kts | 77° |
| 2026-05-04 04:20 | -31.84914 | 116.15763 | 7213 ft | 267 kts | 80° |
| 2026-05-04 04:20 | -31.84544 | 116.17908 | 7973 ft | 271 kts | 79° |
| 2026-05-04 04:20 | -31.84147 | 116.20073 | 8805 ft | 270 kts | 79° |
| 2026-05-04 04:20 | -31.83730 | 116.22248 | 9514 ft | 276 kts | 79° |
| 2026-05-04 04:21 | -31.83299 | 116.24464 | 10246 ft | 280 kts | 79° |
| 2026-05-04 04:21 | -31.82857 | 116.26740 | 10507 ft | 302 kts | 79° |
| 2026-05-04 04:21 | -31.82375 | 116.29223 | 10736 ft | 321 kts | 79° |
| 2026-05-04 04:21 | -31.81869 | 116.31818 | 11251 ft | 329 kts | 79° |
| 2026-05-04 04:22 | -31.81352 | 116.34461 | 11916 ft | 333 kts | 79° |
| 2026-05-04 04:22 | -31.80830 | 116.37129 | 12566 ft | 338 kts | 79° |
| 2026-05-04 04:22 | -31.80299 | 116.39835 | 13259 ft | 342 kts | 79° |
| 2026-05-04 04:22 | -31.79763 | 116.42575 | 13939 ft | 346 kts | 79° |
| 2026-05-04 04:23 | -31.79220 | 116.45347 | 14588 ft | 350 kts | 79° |
| 2026-05-04 04:23 | -31.78675 | 116.48119 | 15215 ft | 355 kts | 79° |
| 2026-05-04 04:23 | -31.78116 | 116.50969 | 15835 ft | 360 kts | 79° |
| 2026-05-04 04:23 | -31.77550 | 116.53848 | 16486 ft | 364 kts | 79° |
| 2026-05-04 04:24 | -31.76975 | 116.56766 | 17114 ft | 369 kts | 79° |
| 2026-05-04 04:24 | -31.76392 | 116.59718 | 17721 ft | 374 kts | 79° |
| 2026-05-04 04:24 | -31.75623 | 116.62654 | 18299 ft | 382 kts | 65° |
| 2026-05-04 04:24 | -31.74041 | 116.65186 | 18896 ft | 388 kts | 48° |
| 2026-05-04 04:25 | -31.72164 | 116.67493 | 19473 ft | 392 kts | 47° |
| 2026-05-04 04:25 | -31.70246 | 116.69790 | 20002 ft | 396 kts | 46° |
| 2026-05-04 04:25 | -31.68337 | 116.72079 | 20545 ft | 399 kts | 47° |
| 2026-05-04 04:25 | -31.66394 | 116.74432 | 21095 ft | 403 kts | 47° |
| 2026-05-04 04:26 | -31.64447 | 116.76810 | 21631 ft | 406 kts | 47° |
| 2026-05-04 04:26 | -31.62484 | 116.79219 | 22154 ft | 410 kts | 47° |
| 2026-05-04 04:26 | -31.60509 | 116.81648 | 22673 ft | 414 kts | 47° |
| 2026-05-04 04:26 | -31.58512 | 116.84102 | 23194 ft | 417 kts | 47° |
| 2026-05-04 04:27 | -31.56515 | 116.86582 | 23698 ft | 420 kts | 50° |
| 2026-05-04 04:27 | -31.54779 | 116.89292 | 24127 ft | 423 kts | 60° |
| 2026-05-04 04:27 | -31.53392 | 116.92329 | 24554 ft | 424 kts | 64° |
| 2026-05-04 04:27 | -31.52061 | 116.95435 | 24980 ft | 427 kts | 65° |
| 2026-05-04 04:28 | -31.50732 | 116.98560 | 25377 ft | 430 kts | 64° |
| 2026-05-04 04:28 | -31.49394 | 117.01687 | 25793 ft | 433 kts | 64° |
| 2026-05-04 04:28 | -31.48032 | 117.04844 | 26190 ft | 435 kts | 64° |
| 2026-05-04 04:28 | -31.46653 | 117.08012 | 26579 ft | 438 kts | 63° |
| 2026-05-04 04:29 | -31.45259 | 117.11200 | 27022 ft | 439 kts | 63° |
| 2026-05-04 04:29 | -31.43862 | 117.14382 | 27537 ft | 439 kts | 63° |
| 2026-05-04 04:29 | -31.42490 | 117.17502 | 28083 ft | 437 kts | 63° |
| 2026-05-04 04:29 | -31.41099 | 117.20662 | 28599 ft | 436 kts | 63° |
| 2026-05-04 04:30 | -31.39710 | 117.23815 | 29093 ft | 436 kts | 63° |
| 2026-05-04 04:30 | -31.38322 | 117.26966 | 29608 ft | 435 kts | 63° |
| 2026-05-04 04:30 | -31.36938 | 117.30104 | 30142 ft | 433 kts | 63° |
| 2026-05-04 04:30 | -31.35558 | 117.33231 | 30618 ft | 432 kts | 62° |
| 2026-05-04 04:31 | -31.34175 | 117.36363 | 30929 ft | 434 kts | 62° |
| 2026-05-04 04:31 | -31.32789 | 117.39500 | 31158 ft | 434 kts | 62° |
| 2026-05-04 04:31 | -31.31423 | 117.42588 | 31347 ft | 432 kts | 62° |
| 2026-05-04 04:31 | -31.30040 | 117.45714 | 31332 ft | 433 kts | 62° |
| 2026-05-04 04:32 | -31.27277 | 117.51947 | 31352 ft | 432 kts | 62° |
| 2026-05-04 04:32 | -31.24611 | 117.58242 | 31353 ft | 433 kts | 64° |
| 2026-05-04 04:33 | -31.22055 | 117.64608 | 31350 ft | 433 kts | 65° |
| 2026-05-04 04:33 | -31.19506 | 117.70939 | 31345 ft | 433 kts | 64° |
| 2026-05-04 04:34 | -31.16921 | 117.77302 | 31343 ft | 433 kts | 64° |
| 2026-05-04 04:34 | -31.14331 | 117.83640 | 31343 ft | 432 kts | 64° |
| 2026-05-04 04:35 | -31.11742 | 117.89963 | 31344 ft | 431 kts | 64° |
| 2026-05-04 04:35 | -31.09170 | 117.96231 | 31345 ft | 431 kts | 64° |
| 2026-05-04 04:36 | -31.06580 | 118.02535 | 31344 ft | 431 kts | 64° |
| 2026-05-04 04:36 | -31.03988 | 118.08831 | 31338 ft | 431 kts | 64° |
| 2026-05-04 04:37 | -30.98804 | 118.21395 | 31338 ft | 432 kts | 64° |
| 2026-05-04 04:38 | -30.96194 | 118.27703 | 31338 ft | 432 kts | 64° |
| 2026-05-04 04:38 | -30.93579 | 118.34014 | 31340 ft | 433 kts | 64° |
| 2026-05-04 04:39 | -30.90957 | 118.40330 | 31334 ft | 433 kts | 65° |
| 2026-05-04 04:39 | -30.88333 | 118.46641 | 31338 ft | 434 kts | 65° |
| 2026-05-04 04:40 | -30.85715 | 118.52926 | 31338 ft | 434 kts | 64° |
| 2026-05-04 04:40 | -30.83081 | 118.59239 | 31334 ft | 434 kts | 64° |
| 2026-05-04 04:41 | -30.80447 | 118.65541 | 31332 ft | 433 kts | 64° |
| 2026-05-04 04:41 | -30.77812 | 118.71836 | 31329 ft | 433 kts | 64° |
| 2026-05-04 04:42 | -30.75194 | 118.78083 | 31329 ft | 433 kts | 64° |
| 2026-05-04 04:42 | -30.72612 | 118.84395 | 31321 ft | 432 kts | 70° |
| 2026-05-04 04:43 | -30.71378 | 118.91173 | 31328 ft | 429 kts | 88° |
| 2026-05-04 04:43 | -30.71107 | 118.98093 | 31325 ft | 429 kts | 89° |
| 2026-05-04 04:44 | -30.70867 | 119.04833 | 31066 ft | 413 kts | 89° |
| 2026-05-04 04:44 | -30.70737 | 119.08138 | 30820 ft | 407 kts | 89° |
| 2026-05-04 04:44 | -30.70601 | 119.11415 | 30453 ft | 405 kts | 89° |
| 2026-05-04 04:45 | -30.70461 | 119.14667 | 30077 ft | 402 kts | 89° |
| 2026-05-04 04:45 | -30.70318 | 119.17892 | 29692 ft | 398 kts | 89° |
| 2026-05-04 04:45 | -30.70174 | 119.21095 | 29312 ft | 395 kts | 89° |
| 2026-05-04 04:47 | -30.69320 | 119.39703 | 27135 ft | 377 kts | 89° |
| 2026-05-04 04:47 | -30.69178 | 119.42735 | 26786 ft | 374 kts | 90° |
| 2026-05-04 04:47 | -30.69037 | 119.45740 | 26436 ft | 372 kts | 90° |
| 2026-05-04 04:47 | -30.68896 | 119.48729 | 26092 ft | 370 kts | 90° |
| 2026-05-04 04:48 | -30.68756 | 119.51704 | 25746 ft | 367 kts | 90° |
| 2026-05-04 04:49 | -30.68195 | 119.63401 | 24383 ft | 360 kts | 90° |
| 2026-05-04 04:49 | -30.68055 | 119.66298 | 24027 ft | 360 kts | 90° |
| 2026-05-04 04:49 | -30.67914 | 119.69193 | 23657 ft | 358 kts | 90° |
| 2026-05-04 04:49 | -30.67773 | 119.72070 | 23393 ft | 356 kts | 90° |
| 2026-05-04 04:50 | -30.67631 | 119.74986 | 23155 ft | 367 kts | 90° |
| 2026-05-04 04:50 | -30.67488 | 119.77937 | 22848 ft | 373 kts | 89° |
| 2026-05-04 04:50 | -30.67339 | 119.80938 | 22467 ft | 371 kts | 89° |
| 2026-05-04 04:50 | -30.67189 | 119.83918 | 22104 ft | 368 kts | 89° |
| 2026-05-04 04:51 | -30.67039 | 119.86872 | 21729 ft | 365 kts | 90° |
| 2026-05-04 04:51 | -30.66891 | 119.89802 | 21356 ft | 362 kts | 90° |
| 2026-05-04 04:51 | -30.66743 | 119.92711 | 20992 ft | 360 kts | 90° |
| 2026-05-04 04:51 | -30.66596 | 119.95594 | 20629 ft | 357 kts | 90° |
| 2026-05-04 04:52 | -30.66450 | 119.98456 | 20265 ft | 355 kts | 90° |
| 2026-05-04 04:52 | -30.66304 | 120.01304 | 19914 ft | 353 kts | 90° |
| 2026-05-04 04:52 | -30.66161 | 120.04103 | 19562 ft | 351 kts | 90° |
| 2026-05-04 04:52 | -30.66015 | 120.06922 | 19210 ft | 348 kts | 90° |
| 2026-05-04 04:53 | -30.65870 | 120.09725 | 18858 ft | 347 kts | 90° |
| 2026-05-04 04:53 | -30.65725 | 120.12507 | 18497 ft | 345 kts | 90° |
| 2026-05-04 04:53 | -30.65580 | 120.15282 | 18096 ft | 343 kts | 90° |
| 2026-05-04 04:53 | -30.65435 | 120.18036 | 17721 ft | 341 kts | 90° |
| 2026-05-04 04:54 | -30.65291 | 120.20771 | 17360 ft | 338 kts | 90° |
| 2026-05-04 04:54 | -30.65147 | 120.23485 | 17007 ft | 335 kts | 90° |
| 2026-05-04 04:54 | -30.65006 | 120.26139 | 16665 ft | 333 kts | 90° |
| 2026-05-04 04:54 | -30.64864 | 120.28807 | 16321 ft | 330 kts | 90° |
| 2026-05-04 04:55 | -30.64722 | 120.31460 | 15981 ft | 328 kts | 90° |
| 2026-05-04 04:55 | -30.64580 | 120.34090 | 15645 ft | 325 kts | 90° |
| 2026-05-04 04:55 | -30.64440 | 120.36700 | 15312 ft | 323 kts | 90° |
| 2026-05-04 04:55 | -30.64299 | 120.39291 | 14977 ft | 321 kts | 90° |
| 2026-05-04 04:56 | -30.64159 | 120.41868 | 14660 ft | 319 kts | 90° |
| 2026-05-04 04:56 | -30.64020 | 120.44429 | 14326 ft | 317 kts | 90° |
| 2026-05-04 04:56 | -30.63881 | 120.46973 | 13979 ft | 315 kts | 90° |
| 2026-05-04 04:56 | -30.63741 | 120.49509 | 13616 ft | 313 kts | 90° |
| 2026-05-04 04:57 | -30.63604 | 120.51992 | 13267 ft | 311 kts | 90° |
| 2026-05-04 04:57 | -30.63466 | 120.54485 | 12952 ft | 308 kts | 90° |
| 2026-05-04 04:57 | -30.63329 | 120.56957 | 12623 ft | 306 kts | 90° |
| 2026-05-04 04:57 | -30.63192 | 120.59413 | 12301 ft | 304 kts | 90° |
| 2026-05-04 04:58 | -30.63056 | 120.61852 | 11985 ft | 301 kts | 90° |
| 2026-05-04 04:58 | -30.62921 | 120.64272 | 11667 ft | 300 kts | 90° |
| 2026-05-04 04:58 | -30.62785 | 120.66678 | 11349 ft | 298 kts | 89° |
| 2026-05-04 04:58 | -30.62650 | 120.69069 | 11037 ft | 296 kts | 90° |
| 2026-05-04 04:59 | -30.62516 | 120.71446 | 10653 ft | 296 kts | 89° |
| 2026-05-04 04:59 | -30.62383 | 120.73788 | 10388 ft | 293 kts | 89° |
| 2026-05-04 04:59 | -30.62249 | 120.76128 | 10212 ft | 286 kts | 89° |
| 2026-05-04 04:59 | -30.62119 | 120.78399 | 10064 ft | 278 kts | 89° |
| 2026-05-04 05:00 | -30.61991 | 120.80626 | 9781 ft | 276 kts | 90° |
| 2026-05-04 05:00 | -30.61866 | 120.82833 | 9502 ft | 273 kts | 89° |
| 2026-05-04 05:00 | -30.61614 | 120.87208 | 8922 ft | 270 kts | 89° |
| 2026-05-04 05:01 | -30.61488 | 120.89376 | 8653 ft | 268 kts | 89° |
| 2026-05-04 05:01 | -30.61569 | 120.91501 | 8405 ft | 260 kts | 109° |
| 2026-05-04 05:01 | -30.62165 | 120.93409 | 8247 ft | 253 kts | 112° |
| 2026-05-04 05:01 | -30.62786 | 120.95333 | 8024 ft | 250 kts | 112° |
| 2026-05-04 05:02 | -30.63384 | 120.97197 | 7768 ft | 249 kts | 112° |
| 2026-05-04 05:02 | -30.63987 | 120.99083 | 7502 ft | 249 kts | 112° |
| 2026-05-04 05:02 | -30.64586 | 121.00961 | 7237 ft | 248 kts | 112° |
| 2026-05-04 05:02 | -30.65183 | 121.02840 | 6977 ft | 248 kts | 112° |
| 2026-05-04 05:03 | -30.65779 | 121.04719 | 6723 ft | 247 kts | 112° |
| 2026-05-04 05:03 | -30.66373 | 121.06595 | 6436 ft | 248 kts | 111° |
| 2026-05-04 05:04 | -30.68115 | 121.12112 | 5948 ft | 233 kts | 111° |
| 2026-05-04 05:04 | -30.68658 | 121.13831 | 5858 ft | 226 kts | 111° |
| 2026-05-04 05:04 | -30.69192 | 121.15525 | 5734 ft | 220 kts | 111° |
| 2026-05-04 05:06 | -30.72671 | 121.26362 | 4394 ft | 191 kts | 111° |
| 2026-05-04 05:06 | -30.73134 | 121.27797 | 4188 ft | 189 kts | 111° |
| 2026-05-04 05:06 | -30.73594 | 121.29221 | 3977 ft | 187 kts | 111° |
| 2026-05-04 05:07 | -30.74052 | 121.30639 | 3784 ft | 188 kts | 111° |
| 2026-05-04 05:07 | -30.74514 | 121.32074 | 3578 ft | 190 kts | 111° |
| 2026-05-04 05:07 | -30.74975 | 121.33503 | 3343 ft | 186 kts | 111° |
| 2026-05-04 05:09 | -30.78084 | 121.43180 | 1592 ft | 150 kts | 110° |
| 2026-05-04 05:09 | -30.78449 | 121.44304 | 1411 ft | 147 kts | 111° |
| 2026-05-04 05:10 | -30.78802 | 121.45383 | 1262 ft | 142 kts | 110° |
| 2026-05-04 05:10 | -30.79124 | 121.46382 | 1173 ft | 108 kts | 111° |
| 2026-05-04 05:10 | -30.79312 | 121.46968 | 1167 ft | 47 kts | 110° |
| 2026-05-04 05:10 | -30.79385 | 121.47193 | 1163 ft | 26 kts | 110° |
| 2026-05-04 05:11 | -30.79427 | 121.47333 | 1162 ft | 12 kts | 106° |
| 2026-05-04 05:11 | -30.79447 | 121.47427 | 1161 ft | 11 kts | 93° |
| 2026-05-04 05:11 | -30.79482 | 121.47451 | 1161 ft | 8 kts | 217° |
| 2026-05-04 05:11 | -30.79471 | 121.47418 | 1160 ft | 6 kts | 308° |
| 2026-05-04 05:12 | -30.79439 | 121.47348 | 1162 ft | 14 kts | 295° |
| 2026-05-04 05:12 | -30.79382 | 121.47192 | 1165 ft | 29 kts | 290° |
| 2026-05-04 05:12 | -30.79296 | 121.46918 | 1168 ft | 43 kts | 290° |
| 2026-05-04 05:12 | -30.79175 | 121.46547 | 1171 ft | 55 kts | 291° |
| 2026-05-04 05:13 | -30.79061 | 121.46189 | 1178 ft | 29 kts | 290° |
| 2026-05-04 05:13 | -30.78993 | 121.45978 | 1185 ft | 27 kts | 292° |
| 2026-05-04 05:13 | -30.78930 | 121.45783 | 1199 ft | 21 kts | 291° |
| 2026-05-04 05:13 | -30.78891 | 121.45712 | 1201 ft | 9 kts | 342° |
| 2026-05-04 05:14 | -30.78834 | 121.45728 | 1200 ft | 9 kts | 20° |
| 2026-05-04 05:14 | -30.78776 | 121.45752 | 1199 ft | 9 kts | 20° |
| 2026-05-04 05:14 | -30.78716 | 121.45778 | 1198 ft | 9 kts | 20° |
| 2026-05-04 05:14 | -30.78671 | 121.45796 | 1198 ft | 2 kts | 15° |
| 2026-05-04 05:15 | -30.78654 | 121.45798 | 1198 ft | 3 kts | 3° |
| 2026-05-04 05:15 | -30.78624 | 121.45800 | 1198 ft | 5 kts | 9° |
| 2026-05-04 05:15 | -30.78608 | 121.45806 | 1199 ft | 1 kts | 19° |
| 2026-05-04 05:15 | -30.78606 | 121.45807 | 1199 ft | 0 kts | 18° |